sensor_id;sensor_type;location;lat;lon;timestamp;temperature;humidity
4249;DHT22;8404;48.752;12.922;2022-12-18T00:00:07;-2.50;98.60
4249;DHT22;8404;48.752;12.922;2022-12-18T00:02:43;-2.50;98.60
4249;DHT22;8404;48.752;12.922;2022-12-18T00:05:11;-2.50;98.60
4249;DHT22;8404;48.752;12.922;2022-12-18T00:07:39;-2.50;98.50
4249;DHT22;8404;48.752;12.922;2022-12-18T00:10:09;-2.60;98.40
4249;DHT22;8404;48.752;12.922;2022-12-18T00:12:41;-2.60;98.50
4249;DHT22;8404;48.752;12.922;2022-12-18T00:15:09;-2.60;98.50
4249;DHT22;8404;48.752;12.922;2022-12-18T00:17:37;-2.60;98.50
4249;DHT22;8404;48.752;12.922;2022-12-18T00:20:06;-2.60;98.60
4249;DHT22;8404;48.752;12.922;2022-12-18T00:22:34;-2.60;98.60
4249;DHT22;8404;48.752;12.922;2022-12-18T00:25:03;-2.60;98.60
4249;DHT22;8404;48.752;12.922;2022-12-18T00:27:33;-2.60;98.60
4249;DHT22;8404;48.752;12.922;2022-12-18T00:30:01;-2.60;98.50
4249;DHT22;8404;48.752;12.922;2022-12-18T00:32:29;-2.60;98.50
4249;DHT22;8404;48.752;12.922;2022-12-18T00:34:57;-2.60;98.50
4249;DHT22;8404;48.752;12.922;2022-12-18T00:37:26;-2.60;98.50
4249;DHT22;8404;48.752;12.922;2022-12-18T00:39:55;-2.60;98.40
4249;DHT22;8404;48.752;12.922;2022-12-18T00:42:23;-2.60;98.50
4249;DHT22;8404;48.752;12.922;2022-12-18T00:45:10;-2.60;98.50
4249;DHT22;8404;48.752;12.922;2022-12-18T00:47:39;-2.60;98.30
4249;DHT22;8404;48.752;12.922;2022-12-18T00:50:09;-2.60;97.90
4249;DHT22;8404;48.752;12.922;2022-12-18T00:52:37;-2.60;98.20
4249;DHT22;8404;48.752;12.922;2022-12-18T00:55:06;-2.60;98.30
4249;DHT22;8404;48.752;12.922;2022-12-18T00:57:34;-2.60;98.30
4249;DHT22;8404;48.752;12.922;2022-12-18T01:00:04;-2.60;98.30
4249;DHT22;8404;48.752;12.922;2022-12-18T01:02:35;-2.60;98.10
4249;DHT22;8404;48.752;12.922;2022-12-18T01:05:06;-2.60;98.00
4249;DHT22;8404;48.752;12.922;2022-12-18T01:07:34;-2.60;98.10
4249;DHT22;8404;48.752;12.922;2022-12-18T01:10:04;-2.70;98.10
4249;DHT22;8404;48.752;12.922;2022-12-18T01:12:34;-2.70;98.10
4249;DHT22;8404;48.752;12.922;2022-12-18T01:15:04;-2.70;97.80
4249;DHT22;8404;48.752;12.922;2022-12-18T01:17:34;-2.70;97.60
4249;DHT22;8404;48.752;12.922;2022-12-18T01:20:04;-2.70;97.60
4249;DHT22;8404;48.752;12.922;2022-12-18T01:22:33;-2.80;97.60
4249;DHT22;8404;48.752;12.922;2022-12-18T01:25:02;-2.80;97.60
4249;DHT22;8404;48.752;12.922;2022-12-18T01:27:30;-2.90;97.30
4249;DHT22;8404;48.752;12.922;2022-12-18T01:29:59;-3.00;97.20
4249;DHT22;8404;48.752;12.922;2022-12-18T01:32:30;-3.10;96.90
4249;DHT22;8404;48.752;12.922;2022-12-18T01:34:59;-3.20;96.90
4249;DHT22;8404;48.752;12.922;2022-12-18T01:37:27;-3.40;96.90
4249;DHT22;8404;48.752;12.922;2022-12-18T01:39:55;-3.40;96.70
4249;DHT22;8404;48.752;12.922;2022-12-18T01:42:23;-3.50;97.00
4249;DHT22;8404;48.752;12.922;2022-12-18T01:45:04;-3.60;97.00
4249;DHT22;8404;48.752;12.922;2022-12-18T01:47:39;-3.70;96.90
4249;DHT22;8404;48.752;12.922;2022-12-18T01:50:13;-3.70;97.00
4249;DHT22;8404;48.752;12.922;2022-12-18T01:52:42;-3.80;97.20
4249;DHT22;8404;48.752;12.922;2022-12-18T01:55:12;-3.80;97.00
4249;DHT22;8404;48.752;12.922;2022-12-18T01:57:42;-3.90;97.00
4249;DHT22;8404;48.752;12.922;2022-12-18T02:00:14;-3.90;96.90
4249;DHT22;8404;48.752;12.922;2022-12-18T02:02:44;-3.90;96.90
4249;DHT22;8404;48.752;12.922;2022-12-18T02:05:17;-3.90;96.90
4249;DHT22;8404;48.752;12.922;2022-12-18T02:07:57;-3.90;97.30
4249;DHT22;8404;48.752;12.922;2022-12-18T02:10:31;-3.90;97.70
4249;DHT22;8404;48.752;12.922;2022-12-18T02:13:08;-3.90;98.10
4249;DHT22;8404;48.752;12.922;2022-12-18T02:15:41;-3.80;98.30
4249;DHT22;8404;48.752;12.922;2022-12-18T02:18:15;-3.80;98.30
4249;DHT22;8404;48.752;12.922;2022-12-18T02:20:48;-3.70;98.20
4249;DHT22;8404;48.752;12.922;2022-12-18T02:23:28;-3.70;98.30
4249;DHT22;8404;48.752;12.922;2022-12-18T02:26:15;-3.70;98.20
4249;DHT22;8404;48.752;12.922;2022-12-18T02:28:51;-3.70;98.20
4249;DHT22;8404;48.752;12.922;2022-12-18T02:31:29;-3.80;98.20
4249;DHT22;8404;48.752;12.922;2022-12-18T02:34:01;-3.80;98.20
4249;DHT22;8404;48.752;12.922;2022-12-18T02:36:38;-3.80;98.30
4249;DHT22;8404;48.752;12.922;2022-12-18T02:39:11;-3.80;98.30
4249;DHT22;8404;48.752;12.922;2022-12-18T02:41:51;-3.80;98.20
4249;DHT22;8404;48.752;12.922;2022-12-18T02:44:21;-3.80;98.30
4249;DHT22;8404;48.752;12.922;2022-12-18T02:46:51;-3.80;98.30
4249;DHT22;8404;48.752;12.922;2022-12-18T02:49:34;-3.80;98.30
4249;DHT22;8404;48.752;12.922;2022-12-18T02:52:10;-3.80;98.30
4249;DHT22;8404;48.752;12.922;2022-12-18T02:54:52;-3.80;98.20
4249;DHT22;8404;48.752;12.922;2022-12-18T02:57:33;-3.70;98.40
4249;DHT22;8404;48.752;12.922;2022-12-18T03:00:06;-3.70;98.30
4249;DHT22;8404;48.752;12.922;2022-12-18T03:02:40;-3.70;98.10
4249;DHT22;8404;48.752;12.922;2022-12-18T03:05:16;-3.70;98.00
4249;DHT22;8404;48.752;12.922;2022-12-18T03:07:51;-3.80;98.00
4249;DHT22;8404;48.752;12.922;2022-12-18T03:10:26;-3.80;98.00
4249;DHT22;8404;48.752;12.922;2022-12-18T03:13:03;-3.80;97.70
4249;DHT22;8404;48.752;12.922;2022-12-18T03:15:36;-3.90;97.50
4249;DHT22;8404;48.752;12.922;2022-12-18T03:18:14;-3.90;97.50
4249;DHT22;8404;48.752;12.922;2022-12-18T03:20:45;-4.00;97.40
4249;DHT22;8404;48.752;12.922;2022-12-18T03:23:22;-4.00;97.20
4249;DHT22;8404;48.752;12.922;2022-12-18T03:25:54;-4.00;97.00
4249;DHT22;8404;48.752;12.922;2022-12-18T03:28:35;-4.00;97.00
4249;DHT22;8404;48.752;12.922;2022-12-18T03:31:09;-4.10;96.90
4249;DHT22;8404;48.752;12.922;2022-12-18T03:33:42;-4.10;96.80
4249;DHT22;8404;48.752;12.922;2022-12-18T03:36:13;-4.10;97.00
4249;DHT22;8404;48.752;12.922;2022-12-18T03:38:42;-4.10;96.90
4249;DHT22;8404;48.752;12.922;2022-12-18T03:41:16;-4.10;96.50
4249;DHT22;8404;48.752;12.922;2022-12-18T03:44:11;-4.10;96.50
4249;DHT22;8404;48.752;12.922;2022-12-18T03:46:49;-4.10;96.40
4249;DHT22;8404;48.752;12.922;2022-12-18T03:49:25;-4.10;96.20
4249;DHT22;8404;48.752;12.922;2022-12-18T03:52:01;-4.20;96.00
4249;DHT22;8404;48.752;12.922;2022-12-18T03:54:33;-4.20;96.30
4249;DHT22;8404;48.752;12.922;2022-12-18T03:57:13;-4.30;96.50
4249;DHT22;8404;48.752;12.922;2022-12-18T03:59:44;-4.30;96.50
4249;DHT22;8404;48.752;12.922;2022-12-18T04:02:17;-4.30;96.40
4249;DHT22;8404;48.752;12.922;2022-12-18T04:04:46;-4.30;96.30
4249;DHT22;8404;48.752;12.922;2022-12-18T04:07:17;-4.30;96.40
4249;DHT22;8404;48.752;12.922;2022-12-18T04:09:48;-4.30;96.30
4249;DHT22;8404;48.752;12.922;2022-12-18T04:12:17;-4.40;96.50
4249;DHT22;8404;48.752;12.922;2022-12-18T04:14:48;-4.40;96.50
4249;DHT22;8404;48.752;12.922;2022-12-18T04:17:16;-4.40;96.60
4249;DHT22;8404;48.752;12.922;2022-12-18T04:19:46;-4.40;96.60
4249;DHT22;8404;48.752;12.922;2022-12-18T04:22:14;-4.40;96.60
4249;DHT22;8404;48.752;12.922;2022-12-18T04:24:46;-4.30;96.20
4249;DHT22;8404;48.752;12.922;2022-12-18T04:27:22;-4.30;96.30
4249;DHT22;8404;48.752;12.922;2022-12-18T04:29:51;-4.40;96.40
4249;DHT22;8404;48.752;12.922;2022-12-18T04:32:19;-4.40;96.50
4249;DHT22;8404;48.752;12.922;2022-12-18T04:34:48;-4.40;96.40
4249;DHT22;8404;48.752;12.922;2022-12-18T04:37:16;-4.50;96.30
4249;DHT22;8404;48.752;12.922;2022-12-18T04:39:46;-4.50;96.30
4249;DHT22;8404;48.752;12.922;2022-12-18T04:42:21;-4.50;95.80
4249;DHT22;8404;48.752;12.922;2022-12-18T04:44:49;-4.60;95.20
4249;DHT22;8404;48.752;12.922;2022-12-18T04:47:18;-4.70;95.60
4249;DHT22;8404;48.752;12.922;2022-12-18T04:49:46;-4.80;96.20
4249;DHT22;8404;48.752;12.922;2022-12-18T04:52:14;-4.80;96.70
4249;DHT22;8404;48.752;12.922;2022-12-18T04:54:42;-4.80;96.80
4249;DHT22;8404;48.752;12.922;2022-12-18T04:57:11;-4.80;96.70
4249;DHT22;8404;48.752;12.922;2022-12-18T04:59:39;-4.90;97.00
4249;DHT22;8404;48.752;12.922;2022-12-18T05:02:07;-4.90;96.80
4249;DHT22;8404;48.752;12.922;2022-12-18T05:04:37;-4.90;96.90
4249;DHT22;8404;48.752;12.922;2022-12-18T05:07:05;-4.90;97.00
4249;DHT22;8404;48.752;12.922;2022-12-18T05:09:34;-5.00;96.90
4249;DHT22;8404;48.752;12.922;2022-12-18T05:12:03;-5.00;96.70
4249;DHT22;8404;48.752;12.922;2022-12-18T05:14:31;-5.10;96.60
4249;DHT22;8404;48.752;12.922;2022-12-18T05:16:59;-5.10;96.90
4249;DHT22;8404;48.752;12.922;2022-12-18T05:19:27;-5.20;96.80
4249;DHT22;8404;48.752;12.922;2022-12-18T05:21:57;-5.20;96.80
4249;DHT22;8404;48.752;12.922;2022-12-18T05:24:25;-5.30;97.20
4249;DHT22;8404;48.752;12.922;2022-12-18T05:26:53;-5.30;97.50
4249;DHT22;8404;48.752;12.922;2022-12-18T05:29:21;-5.30;97.50
4249;DHT22;8404;48.752;12.922;2022-12-18T05:31:49;-5.30;97.40
4249;DHT22;8404;48.752;12.922;2022-12-18T05:34:17;-5.30;97.50
4249;DHT22;8404;48.752;12.922;2022-12-18T05:36:45;-5.30;97.60
4249;DHT22;8404;48.752;12.922;2022-12-18T05:39:15;-5.30;97.40
4249;DHT22;8404;48.752;12.922;2022-12-18T05:41:43;-5.40;97.40
4249;DHT22;8404;48.752;12.922;2022-12-18T05:44:11;-5.40;97.60
4249;DHT22;8404;48.752;12.922;2022-12-18T05:46:39;-5.40;97.50
4249;DHT22;8404;48.752;12.922;2022-12-18T05:49:07;-5.40;97.20
4249;DHT22;8404;48.752;12.922;2022-12-18T05:51:36;-5.40;97.00
4249;DHT22;8404;48.752;12.922;2022-12-18T05:54:05;-5.50;97.50
4249;DHT22;8404;48.752;12.922;2022-12-18T05:56:35;-5.50;97.50
4249;DHT22;8404;48.752;12.922;2022-12-18T05:59:03;-5.60;97.30
4249;DHT22;8404;48.752;12.922;2022-12-18T06:01:31;-5.60;97.30
4249;DHT22;8404;48.752;12.922;2022-12-18T06:03:59;-5.60;97.30
4249;DHT22;8404;48.752;12.922;2022-12-18T06:06:28;-5.70;97.30
4249;DHT22;8404;48.752;12.922;2022-12-18T06:08:57;-5.70;97.50
4249;DHT22;8404;48.752;12.922;2022-12-18T06:11:26;-5.60;97.50
4249;DHT22;8404;48.752;12.922;2022-12-18T06:13:56;-5.60;97.20
4249;DHT22;8404;48.752;12.922;2022-12-18T06:16:26;-5.60;97.20
4249;DHT22;8404;48.752;12.922;2022-12-18T06:18:56;-5.70;97.20
4249;DHT22;8404;48.752;12.922;2022-12-18T06:21:26;-5.70;96.90
4249;DHT22;8404;48.752;12.922;2022-12-18T06:23:54;-5.80;96.70
4249;DHT22;8404;48.752;12.922;2022-12-18T06:26:23;-5.80;96.70
4249;DHT22;8404;48.752;12.922;2022-12-18T06:28:55;-5.80;96.70
4249;DHT22;8404;48.752;12.922;2022-12-18T06:31:24;-5.80;96.80
4249;DHT22;8404;48.752;12.922;2022-12-18T06:33:52;-5.80;96.60
4249;DHT22;8404;48.752;12.922;2022-12-18T06:36:21;-5.80;96.50
4249;DHT22;8404;48.752;12.922;2022-12-18T06:38:49;-5.80;96.50
4249;DHT22;8404;48.752;12.922;2022-12-18T06:41:19;-5.80;96.40
4249;DHT22;8404;48.752;12.922;2022-12-18T06:43:48;-5.80;96.40
4249;DHT22;8404;48.752;12.922;2022-12-18T06:46:17;-5.80;96.30
4249;DHT22;8404;48.752;12.922;2022-12-18T06:48:49;-5.80;96.20
4249;DHT22;8404;48.752;12.922;2022-12-18T06:51:19;-5.90;96.10
4249;DHT22;8404;48.752;12.922;2022-12-18T06:53:47;-5.90;96.30
4249;DHT22;8404;48.752;12.922;2022-12-18T06:56:15;-5.90;96.30
4249;DHT22;8404;48.752;12.922;2022-12-18T06:58:43;-5.90;96.20
4249;DHT22;8404;48.752;12.922;2022-12-18T07:01:13;-5.90;96.00
4249;DHT22;8404;48.752;12.922;2022-12-18T07:03:42;-5.90;96.20
4249;DHT22;8404;48.752;12.922;2022-12-18T07:06:16;-5.90;96.20
4249;DHT22;8404;48.752;12.922;2022-12-18T07:08:45;-5.90;96.30
4249;DHT22;8404;48.752;12.922;2022-12-18T07:11:16;-5.90;96.00
4249;DHT22;8404;48.752;12.922;2022-12-18T07:13:45;-5.90;95.90
4249;DHT22;8404;48.752;12.922;2022-12-18T07:16:15;-6.00;95.90
4249;DHT22;8404;48.752;12.922;2022-12-18T07:18:53;-6.00;95.90
4249;DHT22;8404;48.752;12.922;2022-12-18T07:21:23;-6.00;95.70
4249;DHT22;8404;48.752;12.922;2022-12-18T07:23:51;-6.00;95.90
4249;DHT22;8404;48.752;12.922;2022-12-18T07:26:24;-6.00;95.80
4249;DHT22;8404;48.752;12.922;2022-12-18T07:28:55;-6.00;95.50
4249;DHT22;8404;48.752;12.922;2022-12-18T07:31:25;-6.00;95.40
4249;DHT22;8404;48.752;12.922;2022-12-18T07:33:55;-6.00;95.40
4249;DHT22;8404;48.752;12.922;2022-12-18T07:36:23;-6.00;95.30
4249;DHT22;8404;48.752;12.922;2022-12-18T07:38:52;-6.00;95.20
4249;DHT22;8404;48.752;12.922;2022-12-18T07:41:20;-6.00;95.20
4249;DHT22;8404;48.752;12.922;2022-12-18T07:43:48;-5.90;95.30
4249;DHT22;8404;48.752;12.922;2022-12-18T07:46:18;-5.90;95.40
4249;DHT22;8404;48.752;12.922;2022-12-18T07:48:46;-5.90;95.60
4249;DHT22;8404;48.752;12.922;2022-12-18T07:51:18;-5.90;95.60
4249;DHT22;8404;48.752;12.922;2022-12-18T07:53:47;-5.80;95.70
4249;DHT22;8404;48.752;12.922;2022-12-18T07:56:18;-5.80;95.50
4249;DHT22;8404;48.752;12.922;2022-12-18T07:58:57;-5.70;95.40
4249;DHT22;8404;48.752;12.922;2022-12-18T08:01:25;-5.70;95.40
4249;DHT22;8404;48.752;12.922;2022-12-18T08:03:54;-5.70;95.50
4249;DHT22;8404;48.752;12.922;2022-12-18T08:06:23;-5.60;95.40
4249;DHT22;8404;48.752;12.922;2022-12-18T08:08:52;-5.50;95.30
4249;DHT22;8404;48.752;12.922;2022-12-18T08:11:21;-5.50;95.40
4249;DHT22;8404;48.752;12.922;2022-12-18T08:13:49;-5.50;95.30
4249;DHT22;8404;48.752;12.922;2022-12-18T08:16:18;-5.40;95.10
4249;DHT22;8404;48.752;12.922;2022-12-18T08:18:47;-5.40;95.10
4249;DHT22;8404;48.752;12.922;2022-12-18T08:21:18;-5.30;95.20
4249;DHT22;8404;48.752;12.922;2022-12-18T08:23:49;-5.30;95.30
4249;DHT22;8404;48.752;12.922;2022-12-18T08:26:19;-5.20;95.30
4249;DHT22;8404;48.752;12.922;2022-12-18T08:28:48;-5.20;95.20
4249;DHT22;8404;48.752;12.922;2022-12-18T08:31:16;-5.10;95.20
4249;DHT22;8404;48.752;12.922;2022-12-18T08:33:45;-5.10;95.40
4249;DHT22;8404;48.752;12.922;2022-12-18T08:36:16;-5.10;95.40
4249;DHT22;8404;48.752;12.922;2022-12-18T08:38:44;-5.00;95.20
4249;DHT22;8404;48.752;12.922;2022-12-18T08:41:15;-5.00;95.10
4249;DHT22;8404;48.752;12.922;2022-12-18T08:43:44;-5.00;95.10
4249;DHT22;8404;48.752;12.922;2022-12-18T08:46:32;-5.00;95.10
4249;DHT22;8404;48.752;12.922;2022-12-18T08:49:02;-4.90;95.20
4249;DHT22;8404;48.752;12.922;2022-12-18T08:51:30;-4.90;95.40
4249;DHT22;8404;48.752;12.922;2022-12-18T08:53:58;-4.80;95.20
4249;DHT22;8404;48.752;12.922;2022-12-18T08:56:28;-4.70;95.30
4249;DHT22;8404;48.752;12.922;2022-12-18T08:58:57;-4.60;95.10
4249;DHT22;8404;48.752;12.922;2022-12-18T09:01:26;-4.50;95.00
4249;DHT22;8404;48.752;12.922;2022-12-18T09:03:54;-4.40;94.90
4249;DHT22;8404;48.752;12.922;2022-12-18T09:06:23;-4.30;94.60
4249;DHT22;8404;48.752;12.922;2022-12-18T09:08:51;-4.30;94.50
4249;DHT22;8404;48.752;12.922;2022-12-18T09:11:21;-4.20;94.50
4249;DHT22;8404;48.752;12.922;2022-12-18T09:13:51;-4.20;94.20
4249;DHT22;8404;48.752;12.922;2022-12-18T09:16:20;-4.10;94.20
4249;DHT22;8404;48.752;12.922;2022-12-18T09:18:56;-4.10;94.00
4249;DHT22;8404;48.752;12.922;2022-12-18T09:21:28;-4.00;93.80
4249;DHT22;8404;48.752;12.922;2022-12-18T09:23:58;-4.00;93.70
4249;DHT22;8404;48.752;12.922;2022-12-18T09:26:27;-3.90;93.70
4249;DHT22;8404;48.752;12.922;2022-12-18T09:28:56;-3.90;93.30
4249;DHT22;8404;48.752;12.922;2022-12-18T09:31:24;-3.90;93.10
4249;DHT22;8404;48.752;12.922;2022-12-18T09:33:54;-3.90;93.20
4249;DHT22;8404;48.752;12.922;2022-12-18T09:36:22;-4.00;93.10
4249;DHT22;8404;48.752;12.922;2022-12-18T09:38:50;-4.00;93.30
4249;DHT22;8404;48.752;12.922;2022-12-18T09:41:33;-4.00;93.50
4249;DHT22;8404;48.752;12.922;2022-12-18T09:44:09;-4.00;93.80
4249;DHT22;8404;48.752;12.922;2022-12-18T09:46:43;-3.90;93.90
4249;DHT22;8404;48.752;12.922;2022-12-18T09:49:16;-3.80;93.80
4249;DHT22;8404;48.752;12.922;2022-12-18T09:51:49;-3.70;93.50
4249;DHT22;8404;48.752;12.922;2022-12-18T09:54:21;-3.70;93.20
4249;DHT22;8404;48.752;12.922;2022-12-18T09:56:50;-3.70;93.20
4249;DHT22;8404;48.752;12.922;2022-12-18T09:59:23;-3.70;93.50
4249;DHT22;8404;48.752;12.922;2022-12-18T10:01:52;-3.60;93.50
4249;DHT22;8404;48.752;12.922;2022-12-18T10:04:20;-3.50;93.70
4249;DHT22;8404;48.752;12.922;2022-12-18T10:06:52;-3.50;93.50
4249;DHT22;8404;48.752;12.922;2022-12-18T10:09:28;-3.40;93.40
4249;DHT22;8404;48.752;12.922;2022-12-18T10:12:05;-3.30;93.60
4249;DHT22;8404;48.752;12.922;2022-12-18T10:14:43;-3.20;93.40
4249;DHT22;8404;48.752;12.922;2022-12-18T10:17:20;-3.00;93.30
4249;DHT22;8404;48.752;12.922;2022-12-18T10:19:54;-3.00;93.00
4249;DHT22;8404;48.752;12.922;2022-12-18T10:22:41;-2.90;92.80
4249;DHT22;8404;48.752;12.922;2022-12-18T10:25:20;-2.90;92.60
4249;DHT22;8404;48.752;12.922;2022-12-18T10:27:52;-2.80;92.90
4249;DHT22;8404;48.752;12.922;2022-12-18T10:30:23;-2.70;92.60
4249;DHT22;8404;48.752;12.922;2022-12-18T10:32:52;-2.60;92.30
4249;DHT22;8404;48.752;12.922;2022-12-18T10:35:24;-2.50;92.10
4249;DHT22;8404;48.752;12.922;2022-12-18T10:38:07;-2.50;92.10
4249;DHT22;8404;48.752;12.922;2022-12-18T10:40:50;-2.30;92.00
4249;DHT22;8404;48.752;12.922;2022-12-18T10:43:24;-2.30;91.50
4249;DHT22;8404;48.752;12.922;2022-12-18T10:46:03;-2.30;91.70
4249;DHT22;8404;48.752;12.922;2022-12-18T10:48:35;-2.30;91.70
4249;DHT22;8404;48.752;12.922;2022-12-18T10:51:05;-2.20;91.70
4249;DHT22;8404;48.752;12.922;2022-12-18T10:53:41;-2.30;91.20
4249;DHT22;8404;48.752;12.922;2022-12-18T10:56:10;-2.30;91.00
4249;DHT22;8404;48.752;12.922;2022-12-18T10:58:39;-2.40;90.70
4249;DHT22;8404;48.752;12.922;2022-12-18T11:01:11;-2.50;90.90
4249;DHT22;8404;48.752;12.922;2022-12-18T11:03:41;-2.50;90.80
4249;DHT22;8404;48.752;12.922;2022-12-18T11:06:16;-2.50;90.90
4249;DHT22;8404;48.752;12.922;2022-12-18T11:08:57;-2.60;90.70
4249;DHT22;8404;48.752;12.922;2022-12-18T11:11:27;-2.60;90.40
4249;DHT22;8404;48.752;12.922;2022-12-18T11:14:03;-2.60;90.60
4249;DHT22;8404;48.752;12.922;2022-12-18T11:16:36;-2.70;90.70
4249;DHT22;8404;48.752;12.922;2022-12-18T11:19:19;-2.60;90.80
4249;DHT22;8404;48.752;12.922;2022-12-18T11:21:49;-2.60;90.80
4249;DHT22;8404;48.752;12.922;2022-12-18T11:24:22;-2.60;90.70
4249;DHT22;8404;48.752;12.922;2022-12-18T11:26:55;-2.60;90.60
4249;DHT22;8404;48.752;12.922;2022-12-18T11:29:34;-2.50;90.60
4249;DHT22;8404;48.752;12.922;2022-12-18T11:32:29;-2.50;90.40
4249;DHT22;8404;48.752;12.922;2022-12-18T11:35:04;-2.50;90.40
4249;DHT22;8404;48.752;12.922;2022-12-18T11:37:38;-2.50;90.40
4249;DHT22;8404;48.752;12.922;2022-12-18T11:40:13;-2.40;90.50
4249;DHT22;8404;48.752;12.922;2022-12-18T11:42:48;-2.40;90.60
4249;DHT22;8404;48.752;12.922;2022-12-18T11:45:31;-2.40;90.60
4249;DHT22;8404;48.752;12.922;2022-12-18T11:48:12;-2.40;90.60
4249;DHT22;8404;48.752;12.922;2022-12-18T11:50:47;-2.30;90.60
4249;DHT22;8404;48.752;12.922;2022-12-18T11:53:17;-2.30;90.50
4249;DHT22;8404;48.752;12.922;2022-12-18T11:55:53;-2.30;90.70
4249;DHT22;8404;48.752;12.922;2022-12-18T11:58:34;-2.30;90.80
4249;DHT22;8404;48.752;12.922;2022-12-18T12:01:13;-2.20;90.70
4249;DHT22;8404;48.752;12.922;2022-12-18T12:03:57;-2.20;90.70
4249;DHT22;8404;48.752;12.922;2022-12-18T12:06:31;-2.20;90.70
4249;DHT22;8404;48.752;12.922;2022-12-18T12:09:10;-2.10;90.60
4249;DHT22;8404;48.752;12.922;2022-12-18T12:11:49;-2.10;90.60
4249;DHT22;8404;48.752;12.922;2022-12-18T12:14:28;-2.10;90.50
4249;DHT22;8404;48.752;12.922;2022-12-18T12:17:04;-2.00;90.60
4249;DHT22;8404;48.752;12.922;2022-12-18T12:19:43;-1.90;90.70
4249;DHT22;8404;48.752;12.922;2022-12-18T12:22:20;-1.90;90.60
4249;DHT22;8404;48.752;12.922;2022-12-18T12:25:01;-1.90;90.70
4249;DHT22;8404;48.752;12.922;2022-12-18T12:27:41;-1.90;90.70
4249;DHT22;8404;48.752;12.922;2022-12-18T12:30:18;-1.80;90.70
4249;DHT22;8404;48.752;12.922;2022-12-18T12:33:04;-1.80;90.70
4249;DHT22;8404;48.752;12.922;2022-12-18T12:35:44;-1.70;90.70
4249;DHT22;8404;48.752;12.922;2022-12-18T12:38:17;-1.70;90.80
4249;DHT22;8404;48.752;12.922;2022-12-18T12:40:51;-1.60;90.60
4249;DHT22;8404;48.752;12.922;2022-12-18T12:43:34;-1.70;90.70
4249;DHT22;8404;48.752;12.922;2022-12-18T12:46:05;-1.60;90.60
4249;DHT22;8404;48.752;12.922;2022-12-18T12:48:40;-1.60;90.50
4249;DHT22;8404;48.752;12.922;2022-12-18T12:51:18;-1.50;90.30
4249;DHT22;8404;48.752;12.922;2022-12-18T12:53:48;-1.50;90.20
4249;DHT22;8404;48.752;12.922;2022-12-18T12:56:19;-1.50;90.00
4249;DHT22;8404;48.752;12.922;2022-12-18T12:58:58;-1.50;89.70
4249;DHT22;8404;48.752;12.922;2022-12-18T13:01:36;-1.50;89.40
4249;DHT22;8404;48.752;12.922;2022-12-18T13:04:18;-1.50;89.00
4249;DHT22;8404;48.752;12.922;2022-12-18T13:06:58;-1.60;88.20
4249;DHT22;8404;48.752;12.922;2022-12-18T13:09:30;-1.60;88.60
4249;DHT22;8404;48.752;12.922;2022-12-18T13:12:07;-1.60;88.60
4249;DHT22;8404;48.752;12.922;2022-12-18T13:15:13;-1.60;88.90
4249;DHT22;8404;48.752;12.922;2022-12-18T13:17:48;-1.50;88.40
4249;DHT22;8404;48.752;12.922;2022-12-18T13:20:16;-1.50;88.30
4249;DHT22;8404;48.752;12.922;2022-12-18T13:22:47;-1.50;88.30
4249;DHT22;8404;48.752;12.922;2022-12-18T13:25:34;-1.50;88.30
4249;DHT22;8404;48.752;12.922;2022-12-18T13:28:08;-1.50;88.40
4249;DHT22;8404;48.752;12.922;2022-12-18T13:30:57;-1.50;87.90
4249;DHT22;8404;48.752;12.922;2022-12-18T13:33:40;-1.50;87.70
4249;DHT22;8404;48.752;12.922;2022-12-18T13:36:32;-1.50;87.60
4249;DHT22;8404;48.752;12.922;2022-12-18T13:39:35;-1.50;87.80
4249;DHT22;8404;48.752;12.922;2022-12-18T13:42:40;-1.60;87.60
4249;DHT22;8404;48.752;12.922;2022-12-18T13:45:39;-1.60;87.70
4249;DHT22;8404;48.752;12.922;2022-12-18T13:48:20;-1.70;88.10
4249;DHT22;8404;48.752;12.922;2022-12-18T13:51:02;-1.70;88.30
4249;DHT22;8404;48.752;12.922;2022-12-18T13:53:35;-1.70;88.30
4249;DHT22;8404;48.752;12.922;2022-12-18T13:56:06;-1.70;88.10
4249;DHT22;8404;48.752;12.922;2022-12-18T13:58:34;-1.80;87.20
4249;DHT22;8404;48.752;12.922;2022-12-18T14:01:02;-1.80;86.90
4249;DHT22;8404;48.752;12.922;2022-12-18T14:03:31;-1.90;87.00
4249;DHT22;8404;48.752;12.922;2022-12-18T14:06:02;-1.90;87.20
4249;DHT22;8404;48.752;12.922;2022-12-18T14:08:38;-2.00;87.20
4249;DHT22;8404;48.752;12.922;2022-12-18T14:11:17;-2.10;87.20
4249;DHT22;8404;48.752;12.922;2022-12-18T14:13:48;-2.20;87.50
4249;DHT22;8404;48.752;12.922;2022-12-18T14:16:17;-2.20;87.70
4249;DHT22;8404;48.752;12.922;2022-12-18T14:18:48;-2.30;87.70
4249;DHT22;8404;48.752;12.922;2022-12-18T14:21:21;-2.30;88.00
4249;DHT22;8404;48.752;12.922;2022-12-18T14:24:03;-2.30;88.50
4249;DHT22;8404;48.752;12.922;2022-12-18T14:26:33;-2.40;89.10
4249;DHT22;8404;48.752;12.922;2022-12-18T14:29:17;-2.40;89.70
4249;DHT22;8404;48.752;12.922;2022-12-18T14:32:04;-2.50;89.30
4249;DHT22;8404;48.752;12.922;2022-12-18T14:34:40;-2.60;89.50
4249;DHT22;8404;48.752;12.922;2022-12-18T14:37:10;-2.60;89.30
4249;DHT22;8404;48.752;12.922;2022-12-18T14:39:38;-2.70;89.20
4249;DHT22;8404;48.752;12.922;2022-12-18T14:42:11;-2.80;89.30
4249;DHT22;8404;48.752;12.922;2022-12-18T14:44:39;-2.90;89.20
4249;DHT22;8404;48.752;12.922;2022-12-18T14:47:27;-3.00;89.10
4249;DHT22;8404;48.752;12.922;2022-12-18T14:49:55;-3.20;88.80
4249;DHT22;8404;48.752;12.922;2022-12-18T14:52:27;-3.30;88.80
4249;DHT22;8404;48.752;12.922;2022-12-18T14:54:57;-3.40;88.80
4249;DHT22;8404;48.752;12.922;2022-12-18T14:57:30;-3.50;89.30
4249;DHT22;8404;48.752;12.922;2022-12-18T15:00:04;-3.60;89.60
4249;DHT22;8404;48.752;12.922;2022-12-18T15:02:35;-3.70;90.00
4249;DHT22;8404;48.752;12.922;2022-12-18T15:05:14;-3.90;90.00
4249;DHT22;8404;48.752;12.922;2022-12-18T15:07:45;-4.00;90.00
4249;DHT22;8404;48.752;12.922;2022-12-18T15:10:15;-4.20;90.20
4249;DHT22;8404;48.752;12.922;2022-12-18T15:12:47;-4.30;90.20
4249;DHT22;8404;48.752;12.922;2022-12-18T15:15:47;-4.40;90.40
4249;DHT22;8404;48.752;12.922;2022-12-18T15:18:18;-4.50;90.60
4249;DHT22;8404;48.752;12.922;2022-12-18T15:20:49;-4.70;90.50
4249;DHT22;8404;48.752;12.922;2022-12-18T15:23:20;-4.80;90.70
4249;DHT22;8404;48.752;12.922;2022-12-18T15:25:55;-4.90;91.10
4249;DHT22;8404;48.752;12.922;2022-12-18T15:28:27;-5.00;91.50
4249;DHT22;8404;48.752;12.922;2022-12-18T15:31:06;-5.10;91.90
4249;DHT22;8404;48.752;12.922;2022-12-18T15:33:36;-5.20;92.20
4249;DHT22;8404;48.752;12.922;2022-12-18T15:36:08;-5.20;92.40
4249;DHT22;8404;48.752;12.922;2022-12-18T15:38:37;-5.20;92.60
4249;DHT22;8404;48.752;12.922;2022-12-18T15:41:05;-5.30;92.80
4249;DHT22;8404;48.752;12.922;2022-12-18T15:43:41;-5.30;92.80
4249;DHT22;8404;48.752;12.922;2022-12-18T15:46:12;-5.40;92.80
4249;DHT22;8404;48.752;12.922;2022-12-18T15:48:42;-5.50;92.70
4249;DHT22;8404;48.752;12.922;2022-12-18T15:51:14;-5.50;92.60
4249;DHT22;8404;48.752;12.922;2022-12-18T15:53:43;-5.60;92.70
4249;DHT22;8404;48.752;12.922;2022-12-18T15:56:13;-5.70;92.70
4249;DHT22;8404;48.752;12.922;2022-12-18T15:59:01;-5.70;93.10
4249;DHT22;8404;48.752;12.922;2022-12-18T16:01:30;-5.70;93.40
4249;DHT22;8404;48.752;12.922;2022-12-18T16:04:04;-5.80;93.40
4249;DHT22;8404;48.752;12.922;2022-12-18T16:06:32;-5.80;93.70
4249;DHT22;8404;48.752;12.922;2022-12-18T16:09:17;-5.90;94.00
4249;DHT22;8404;48.752;12.922;2022-12-18T16:11:52;-5.90;94.00
4249;DHT22;8404;48.752;12.922;2022-12-18T16:14:23;-5.90;94.10
4249;DHT22;8404;48.752;12.922;2022-12-18T16:16:54;-5.90;94.20
4249;DHT22;8404;48.752;12.922;2022-12-18T16:19:23;-6.00;94.00